sensor_id;sensor_type;location;lat;lon;timestamp;P1;durP1;ratioP1;P2;durP2;ratioP2
84816;SDS011;75051;53.104;18.058;2024-03-22T00:02:01;14.10;;;10.20;;
84816;SDS011;75051;53.104;18.058;2024-03-22T00:04:28;19.50;;;10.80;;
84816;SDS011;75051;53.104;18.058;2024-03-22T00:06:54;13.30;;;9.70;;
84816;SDS011;75051;53.104;18.058;2024-03-22T00:09:21;18.10;;;11.10;;
84816;SDS011;75051;53.104;18.058;2024-03-22T00:11:47;17.70;;;11.30;;
84816;SDS011;75051;53.104;18.058;2024-03-22T00:14:14;20.10;;;13.10;;
84816;SDS011;75051;53.104;18.058;2024-03-22T00:16:42;16.40;;;10.50;;
84816;SDS011;75051;53.104;18.058;2024-03-22T00:19:08;16.50;;;9.70;;
84816;SDS011;75051;53.104;18.058;2024-03-22T00:21:37;17.10;;;10.70;;
84816;SDS011;75051;53.104;18.058;2024-03-22T00:24:04;19.50;;;10.20;;
84816;SDS011;75051;53.104;18.058;2024-03-22T00:26:30;16.30;;;12.10;;
84816;SDS011;75051;53.104;18.058;2024-03-22T00:28:57;19.30;;;11.00;;
84816;SDS011;75051;53.104;18.058;2024-03-22T00:31:26;18.90;;;11.50;;
84816;SDS011;75051;53.104;18.058;2024-03-22T00:33:53;19.90;;;12.60;;
84816;SDS011;75051;53.104;18.058;2024-03-22T00:36:19;20.90;;;12.00;;
84816;SDS011;75051;53.104;18.058;2024-03-22T00:38:46;23.50;;;14.40;;
84816;SDS011;75051;53.104;18.058;2024-03-22T00:41:13;21.90;;;13.50;;
84816;SDS011;75051;53.104;18.058;2024-03-22T00:43:40;17.70;;;11.30;;
84816;SDS011;75051;53.104;18.058;2024-03-22T00:46:07;18.60;;;12.20;;
84816;SDS011;75051;53.104;18.058;2024-03-22T00:48:34;18.90;;;11.30;;
84816;SDS011;75051;53.104;18.058;2024-03-22T00:51:02;22.20;;;12.50;;
84816;SDS011;75051;53.104;18.058;2024-03-22T00:53:29;18.40;;;11.60;;
84816;SDS011;75051;53.104;18.058;2024-03-22T00:55:56;21.40;;;12.40;;
84816;SDS011;75051;53.104;18.058;2024-03-22T00:58:28;23.10;;;12.80;;
84816;SDS011;75051;53.104;18.058;2024-03-22T01:00:55;22.00;;;12.70;;
84816;SDS011;75051;53.104;18.058;2024-03-22T01:03:22;21.60;;;11.80;;
84816;SDS011;75051;53.104;18.058;2024-03-22T01:05:49;20.60;;;11.70;;
84816;SDS011;75051;53.104;18.058;2024-03-22T01:08:16;21.90;;;12.80;;
84816;SDS011;75051;53.104;18.058;2024-03-22T01:10:43;20.80;;;13.20;;
84816;SDS011;75051;53.104;18.058;2024-03-22T01:13:09;24.90;;;15.00;;
84816;SDS011;75051;53.104;18.058;2024-03-22T01:15:36;25.40;;;14.50;;
84816;SDS011;75051;53.104;18.058;2024-03-22T01:18:02;24.10;;;13.50;;
84816;SDS011;75051;53.104;18.058;2024-03-22T01:20:29;23.80;;;13.70;;
84816;SDS011;75051;53.104;18.058;2024-03-22T01:22:56;25.10;;;13.50;;
84816;SDS011;75051;53.104;18.058;2024-03-22T01:25:22;24.70;;;13.90;;
84816;SDS011;75051;53.104;18.058;2024-03-22T01:27:49;20.20;;;12.30;;
84816;SDS011;75051;53.104;18.058;2024-03-22T01:30:16;26.60;;;14.20;;
84816;SDS011;75051;53.104;18.058;2024-03-22T01:32:42;25.60;;;13.10;;
84816;SDS011;75051;53.104;18.058;2024-03-22T01:35:09;28.80;;;14.90;;
84816;SDS011;75051;53.104;18.058;2024-03-22T01:37:36;27.70;;;14.40;;
84816;SDS011;75051;53.104;18.058;2024-03-22T01:40:03;28.90;;;15.00;;
84816;SDS011;75051;53.104;18.058;2024-03-22T01:42:33;25.80;;;14.10;;
84816;SDS011;75051;53.104;18.058;2024-03-22T01:45:00;23.50;;;15.00;;
84816;SDS011;75051;53.104;18.058;2024-03-22T01:47:26;29.60;;;16.20;;
84816;SDS011;75051;53.104;18.058;2024-03-22T01:49:54;26.10;;;13.90;;
84816;SDS011;75051;53.104;18.058;2024-03-22T01:52:21;27.00;;;13.60;;
84816;SDS011;75051;53.104;18.058;2024-03-22T01:54:49;29.50;;;15.00;;
84816;SDS011;75051;53.104;18.058;2024-03-22T01:57:15;29.60;;;15.60;;
84816;SDS011;75051;53.104;18.058;2024-03-22T01:59:42;31.40;;;16.80;;
84816;SDS011;75051;53.104;18.058;2024-03-22T02:02:10;32.40;;;16.30;;
84816;SDS011;75051;53.104;18.058;2024-03-22T02:04:37;30.90;;;17.00;;
84816;SDS011;75051;53.104;18.058;2024-03-22T02:07:04;30.60;;;14.50;;
84816;SDS011;75051;53.104;18.058;2024-03-22T02:09:31;35.60;;;17.80;;
84816;SDS011;75051;53.104;18.058;2024-03-22T02:11:57;29.80;;;17.20;;
84816;SDS011;75051;53.104;18.058;2024-03-22T02:14:24;31.00;;;18.20;;
84816;SDS011;75051;53.104;18.058;2024-03-22T02:16:51;33.60;;;16.90;;
84816;SDS011;75051;53.104;18.058;2024-03-22T02:19:18;35.00;;;17.70;;
84816;SDS011;75051;53.104;18.058;2024-03-22T02:21:45;32.50;;;14.70;;
84816;SDS011;75051;53.104;18.058;2024-03-22T02:24:12;30.80;;;14.60;;
84816;SDS011;75051;53.104;18.058;2024-03-22T02:26:39;34.30;;;17.30;;
84816;SDS011;75051;53.104;18.058;2024-03-22T02:29:06;34.30;;;16.20;;
84816;SDS011;75051;53.104;18.058;2024-03-22T02:31:32;35.00;;;18.40;;
84816;SDS011;75051;53.104;18.058;2024-03-22T02:33:59;33.80;;;16.00;;
84816;SDS011;75051;53.104;18.058;2024-03-22T02:36:26;36.20;;;17.30;;
84816;SDS011;75051;53.104;18.058;2024-03-22T02:38:52;34.50;;;18.50;;
84816;SDS011;75051;53.104;18.058;2024-03-22T02:41:19;35.00;;;16.70;;
84816;SDS011;75051;53.104;18.058;2024-03-22T02:43:47;30.70;;;17.30;;
84816;SDS011;75051;53.104;18.058;2024-03-22T02:46:13;35.10;;;16.60;;
84816;SDS011;75051;53.104;18.058;2024-03-22T02:48:40;29.10;;;15.70;;
84816;SDS011;75051;53.104;18.058;2024-03-22T02:51:07;30.20;;;14.80;;
84816;SDS011;75051;53.104;18.058;2024-03-22T02:53:33;29.50;;;16.60;;
84816;SDS011;75051;53.104;18.058;2024-03-22T02:56:00;28.80;;;14.50;;
84816;SDS011;75051;53.104;18.058;2024-03-22T02:58:27;28.60;;;15.80;;
84816;SDS011;75051;53.104;18.058;2024-03-22T03:00:53;30.20;;;16.50;;
84816;SDS011;75051;53.104;18.058;2024-03-22T03:03:20;29.70;;;16.80;;
84816;SDS011;75051;53.104;18.058;2024-03-22T03:05:47;30.60;;;14.30;;
84816;SDS011;75051;53.104;18.058;2024-03-22T03:08:14;32.70;;;16.30;;
84816;SDS011;75051;53.104;18.058;2024-03-22T03:10:40;29.80;;;14.40;;
84816;SDS011;75051;53.104;18.058;2024-03-22T03:13:07;28.10;;;14.30;;
84816;SDS011;75051;53.104;18.058;2024-03-22T03:15:34;29.50;;;15.30;;
84816;SDS011;75051;53.104;18.058;2024-03-22T03:18:00;28.10;;;14.90;;
84816;SDS011;75051;53.104;18.058;2024-03-22T03:20:27;30.40;;;15.60;;
84816;SDS011;75051;53.104;18.058;2024-03-22T03:22:53;29.40;;;14.40;;
84816;SDS011;75051;53.104;18.058;2024-03-22T03:25:20;28.90;;;15.30;;
84816;SDS011;75051;53.104;18.058;2024-03-22T03:27:46;28.50;;;15.90;;
84816;SDS011;75051;53.104;18.058;2024-03-22T03:30:13;34.10;;;17.50;;
84816;SDS011;75051;53.104;18.058;2024-03-22T03:32:40;44.80;;;20.10;;
84816;SDS011;75051;53.104;18.058;2024-03-22T03:35:07;44.30;;;19.20;;
84816;SDS011;75051;53.104;18.058;2024-03-22T03:37:33;40.90;;;19.10;;
84816;SDS011;75051;53.104;18.058;2024-03-22T03:40:00;43.50;;;22.00;;
84816;SDS011;75051;53.104;18.058;2024-03-22T03:42:27;40.60;;;19.60;;
84816;SDS011;75051;53.104;18.058;2024-03-22T03:44:53;41.30;;;17.50;;
84816;SDS011;75051;53.104;18.058;2024-03-22T03:47:20;40.30;;;18.70;;
84816;SDS011;75051;53.104;18.058;2024-03-22T03:49:46;35.30;;;15.80;;
84816;SDS011;75051;53.104;18.058;2024-03-22T03:52:14;38.30;;;20.10;;
84816;SDS011;75051;53.104;18.058;2024-03-22T03:54:40;37.10;;;18.70;;
84816;SDS011;75051;53.104;18.058;2024-03-22T03:57:07;35.20;;;18.10;;
84816;SDS011;75051;53.104;18.058;2024-03-22T03:59:34;30.70;;;16.50;;
84816;SDS011;75051;53.104;18.058;2024-03-22T04:02:00;34.10;;;17.40;;
84816;SDS011;75051;53.104;18.058;2024-03-22T04:04:27;34.70;;;15.70;;
84816;SDS011;75051;53.104;18.058;2024-03-22T04:06:54;37.30;;;18.60;;
84816;SDS011;75051;53.104;18.058;2024-03-22T04:09:22;33.60;;;18.50;;
84816;SDS011;75051;53.104;18.058;2024-03-22T04:11:48;32.00;;;15.00;;
84816;SDS011;75051;53.104;18.058;2024-03-22T04:14:15;30.90;;;14.60;;
84816;SDS011;75051;53.104;18.058;2024-03-22T04:16:41;28.00;;;14.40;;
84816;SDS011;75051;53.104;18.058;2024-03-22T04:19:08;32.60;;;15.50;;
84816;SDS011;75051;53.104;18.058;2024-03-22T04:21:34;32.80;;;16.70;;
84816;SDS011;75051;53.104;18.058;2024-03-22T04:24:01;31.00;;;14.40;;
84816;SDS011;75051;53.104;18.058;2024-03-22T04:26:28;30.30;;;16.80;;
84816;SDS011;75051;53.104;18.058;2024-03-22T04:28:54;28.80;;;14.70;;
84816;SDS011;75051;53.104;18.058;2024-03-22T04:31:22;30.70;;;15.60;;
84816;SDS011;75051;53.104;18.058;2024-03-22T04:33:48;20.50;;;11.40;;
84816;SDS011;75051;53.104;18.058;2024-03-22T04:36:15;29.10;;;13.90;;
84816;SDS011;75051;53.104;18.058;2024-03-22T04:38:42;25.50;;;13.80;;
84816;SDS011;75051;53.104;18.058;2024-03-22T04:41:08;26.50;;;14.20;;
84816;SDS011;75051;53.104;18.058;2024-03-22T04:43:35;25.60;;;13.20;;
84816;SDS011;75051;53.104;18.058;2024-03-22T04:46:02;22.00;;;11.30;;
84816;SDS011;75051;53.104;18.058;2024-03-22T04:48:29;28.20;;;15.30;;
84816;SDS011;75051;53.104;18.058;2024-03-22T04:50:56;31.00;;;14.60;;
84816;SDS011;75051;53.104;18.058;2024-03-22T04:53:23;28.10;;;14.40;;
84816;SDS011;75051;53.104;18.058;2024-03-22T04:55:50;24.50;;;13.60;;
84816;SDS011;75051;53.104;18.058;2024-03-22T04:58:18;28.00;;;12.90;;
84816;SDS011;75051;53.104;18.058;2024-03-22T05:00:46;27.00;;;12.20;;
84816;SDS011;75051;53.104;18.058;2024-03-22T05:03:13;27.50;;;15.30;;
84816;SDS011;75051;53.104;18.058;2024-03-22T05:05:41;28.20;;;13.00;;
84816;SDS011;75051;53.104;18.058;2024-03-22T05:08:08;24.40;;;13.60;;
84816;SDS011;75051;53.104;18.058;2024-03-22T05:10:35;26.60;;;15.20;;
84816;SDS011;75051;53.104;18.058;2024-03-22T05:13:02;25.00;;;14.00;;
84816;SDS011;75051;53.104;18.058;2024-03-22T05:15:29;23.00;;;11.50;;
84816;SDS011;75051;53.104;18.058;2024-03-22T05:17:56;22.60;;;11.40;;
84816;SDS011;75051;53.104;18.058;2024-03-22T05:20:24;24.00;;;12.10;;
84816;SDS011;75051;53.104;18.058;2024-03-22T05:22:51;14.00;;;8.60;;
84816;SDS011;75051;53.104;18.058;2024-03-22T05:25:17;19.50;;;10.10;;
84816;SDS011;75051;53.104;18.058;2024-03-22T05:27:45;24.30;;;10.50;;
84816;SDS011;75051;53.104;18.058;2024-03-22T05:30:12;20.50;;;11.10;;
84816;SDS011;75051;53.104;18.058;2024-03-22T05:32:42;21.20;;;10.20;;
84816;SDS011;75051;53.104;18.058;2024-03-22T05:35:09;19.80;;;10.80;;
84816;SDS011;75051;53.104;18.058;2024-03-22T05:37:35;19.40;;;10.40;;
84816;SDS011;75051;53.104;18.058;2024-03-22T05:40:02;23.90;;;12.60;;
84816;SDS011;75051;53.104;18.058;2024-03-22T05:42:31;20.30;;;10.30;;
84816;SDS011;75051;53.104;18.058;2024-03-22T05:44:57;18.10;;;9.90;;
84816;SDS011;75051;53.104;18.058;2024-03-22T05:47:24;21.80;;;10.30;;
84816;SDS011;75051;53.104;18.058;2024-03-22T05:49:51;17.50;;;10.30;;
84816;SDS011;75051;53.104;18.058;2024-03-22T05:52:20;18.30;;;9.20;;
84816;SDS011;75051;53.104;18.058;2024-03-22T05:54:49;19.70;;;10.90;;
84816;SDS011;75051;53.104;18.058;2024-03-22T05:57:16;18.10;;;9.50;;
84816;SDS011;75051;53.104;18.058;2024-03-22T05:59:44;21.20;;;10.70;;
84816;SDS011;75051;53.104;18.058;2024-03-22T06:02:10;16.10;;;8.20;;
84816;SDS011;75051;53.104;18.058;2024-03-22T06:04:37;17.00;;;9.40;;
84816;SDS011;75051;53.104;18.058;2024-03-22T06:07:04;19.80;;;8.90;;
84816;SDS011;75051;53.104;18.058;2024-03-22T06:09:32;23.70;;;10.30;;
84816;SDS011;75051;53.104;18.058;2024-03-22T06:12:25;16.80;;;10.40;;
84816;SDS011;75051;53.104;18.058;2024-03-22T06:14:53;18.40;;;9.50;;
84816;SDS011;75051;53.104;18.058;2024-03-22T06:17:29;20.00;;;10.80;;
84816;SDS011;75051;53.104;18.058;2024-03-22T06:19:57;20.80;;;9.90;;
84816;SDS011;75051;53.104;18.058;2024-03-22T06:22:24;20.00;;;10.70;;
84816;SDS011;75051;53.104;18.058;2024-03-22T06:24:52;16.50;;;9.80;;
84816;SDS011;75051;53.104;18.058;2024-03-22T06:27:19;19.40;;;9.80;;
84816;SDS011;75051;53.104;18.058;2024-03-22T06:29:46;17.40;;;9.10;;
84816;SDS011;75051;53.104;18.058;2024-03-22T06:32:12;20.80;;;11.00;;
84816;SDS011;75051;53.104;18.058;2024-03-22T06:34:39;17.60;;;9.40;;
84816;SDS011;75051;53.104;18.058;2024-03-22T06:37:07;17.80;;;9.60;;
84816;SDS011;75051;53.104;18.058;2024-03-22T06:39:36;17.80;;;10.10;;
84816;SDS011;75051;53.104;18.058;2024-03-22T06:42:03;17.40;;;8.70;;
84816;SDS011;75051;53.104;18.058;2024-03-22T06:44:30;15.40;;;8.10;;
84816;SDS011;75051;53.104;18.058;2024-03-22T06:46:58;17.60;;;12.00;;
84816;SDS011;75051;53.104;18.058;2024-03-22T06:49:25;15.70;;;9.50;;
84816;SDS011;75051;53.104;18.058;2024-03-22T06:51:52;20.50;;;11.80;;
84816;SDS011;75051;53.104;18.058;2024-03-22T06:54:18;19.60;;;9.90;;
84816;SDS011;75051;53.104;18.058;2024-03-22T06:56:45;15.80;;;9.60;;
84816;SDS011;75051;53.104;18.058;2024-03-22T06:59:11;16.50;;;8.50;;
84816;SDS011;75051;53.104;18.058;2024-03-22T07:01:38;18.90;;;9.20;;
84816;SDS011;75051;53.104;18.058;2024-03-22T07:04:04;19.40;;;11.20;;
84816;SDS011;75051;53.104;18.058;2024-03-22T07:06:31;17.50;;;8.90;;
84816;SDS011;75051;53.104;18.058;2024-03-22T07:08:59;17.90;;;10.00;;
84816;SDS011;75051;53.104;18.058;2024-03-22T07:11:26;18.00;;;9.90;;
84816;SDS011;75051;53.104;18.058;2024-03-22T07:13:53;17.80;;;9.30;;
84816;SDS011;75051;53.104;18.058;2024-03-22T07:16:19;20.50;;;10.00;;
84816;SDS011;75051;53.104;18.058;2024-03-22T07:18:46;17.00;;;10.50;;
84816;SDS011;75051;53.104;18.058;2024-03-22T07:21:14;13.60;;;8.00;;
84816;SDS011;75051;53.104;18.058;2024-03-22T07:23:41;12.90;;;7.00;;
84816;SDS011;75051;53.104;18.058;2024-03-22T07:26:08;13.90;;;7.40;;
84816;SDS011;75051;53.104;18.058;2024-03-22T07:28:34;17.90;;;10.50;;
84816;SDS011;75051;53.104;18.058;2024-03-22T07:31:01;15.60;;;8.70;;
84816;SDS011;75051;53.104;18.058;2024-03-22T07:33:28;15.20;;;8.90;;
84816;SDS011;75051;53.104;18.058;2024-03-22T07:36:01;16.60;;;9.00;;
84816;SDS011;75051;53.104;18.058;2024-03-22T07:38:29;17.50;;;9.30;;
84816;SDS011;75051;53.104;18.058;2024-03-22T07:40:56;15.30;;;8.60;;
84816;SDS011;75051;53.104;18.058;2024-03-22T07:43:23;18.20;;;10.00;;
84816;SDS011;75051;53.104;18.058;2024-03-22T07:45:49;15.60;;;7.40;;
84816;SDS011;75051;53.104;18.058;2024-03-22T07:48:16;20.50;;;9.10;;
84816;SDS011;75051;53.104;18.058;2024-03-22T07:50:43;19.20;;;10.40;;
84816;SDS011;75051;53.104;18.058;2024-03-22T07:53:10;14.80;;;7.70;;
84816;SDS011;75051;53.104;18.058;2024-03-22T07:55:37;20.50;;;9.10;;
84816;SDS011;75051;53.104;18.058;2024-03-22T07:58:03;17.90;;;9.60;;
84816;SDS011;75051;53.104;18.058;2024-03-22T08:00:32;16.50;;;9.30;;
84816;SDS011;75051;53.104;18.058;2024-03-22T08:02:58;14.90;;;8.30;;
84816;SDS011;75051;53.104;18.058;2024-03-22T08:05:25;18.70;;;10.00;;
84816;SDS011;75051;53.104;18.058;2024-03-22T08:07:52;16.80;;;9.60;;
84816;SDS011;75051;53.104;18.058;2024-03-22T08:10:18;16.60;;;8.60;;
84816;SDS011;75051;53.104;18.058;2024-03-22T08:12:45;12.20;;;8.30;;
84816;SDS011;75051;53.104;18.058;2024-03-22T08:15:11;18.20;;;11.90;;
84816;SDS011;75051;53.104;18.058;2024-03-22T08:17:38;14.70;;;9.40;;
84816;SDS011;75051;53.104;18.058;2024-03-22T08:20:05;15.70;;;8.90;;
84816;SDS011;75051;53.104;18.058;2024-03-22T08:22:33;15.60;;;9.30;;
84816;SDS011;75051;53.104;18.058;2024-03-22T08:24:59;15.10;;;7.70;;
84816;SDS011;75051;53.104;18.058;2024-03-22T08:27:28;13.70;;;7.50;;
84816;SDS011;75051;53.104;18.058;2024-03-22T08:29:55;16.30;;;9.20;;
84816;SDS011;75051;53.104;18.058;2024-03-22T08:32:21;13.20;;;8.30;;
84816;SDS011;75051;53.104;18.058;2024-03-22T08:34:48;17.90;;;9.90;;
84816;SDS011;75051;53.104;18.058;2024-03-22T08:37:14;20.50;;;10.80;;
84816;SDS011;75051;53.104;18.058;2024-03-22T08:39:41;17.10;;;10.00;;
84816;SDS011;75051;53.104;18.058;2024-03-22T08:42:07;16.40;;;10.30;;
84816;SDS011;75051;53.104;18.058;2024-03-22T08:44:35;16.00;;;9.10;;
84816;SDS011;75051;53.104;18.058;2024-03-22T08:47:02;17.50;;;11.50;;
84816;SDS011;75051;53.104;18.058;2024-03-22T08:49:30;16.80;;;9.40;;
84816;SDS011;75051;53.104;18.058;2024-03-22T08:51:58;16.60;;;9.90;;
84816;SDS011;75051;53.104;18.058;2024-03-22T08:54:25;17.20;;;11.10;;
84816;SDS011;75051;53.104;18.058;2024-03-22T08:56:52;21.50;;;11.20;;
84816;SDS011;75051;53.104;18.058;2024-03-22T08:59:19;19.20;;;9.60;;
84816;SDS011;75051;53.104;18.058;2024-03-22T09:01:45;18.80;;;9.20;;
84816;SDS011;75051;53.104;18.058;2024-03-22T09:04:12;20.10;;;10.80;;
84816;SDS011;75051;53.104;18.058;2024-03-22T09:06:41;17.90;;;10.20;;
84816;SDS011;75051;53.104;18.058;2024-03-22T09:09:08;18.10;;;11.40;;
84816;SDS011;75051;53.104;18.058;2024-03-22T09:11:35;16.90;;;11.00;;
84816;SDS011;75051;53.104;18.058;2024-03-22T09:14:05;12.00;;;8.30;;
84816;SDS011;75051;53.104;18.058;2024-03-22T09:16:32;16.40;;;9.30;;
84816;SDS011;75051;53.104;18.058;2024-03-22T09:19:20;17.10;;;10.00;;
84816;SDS011;75051;53.104;18.058;2024-03-22T09:21:47;14.10;;;9.00;;
84816;SDS011;75051;53.104;18.058;2024-03-22T09:24:14;15.10;;;8.80;;
84816;SDS011;75051;53.104;18.058;2024-03-22T09:26:41;21.10;;;11.60;;
84816;SDS011;75051;53.104;18.058;2024-03-22T09:29:08;17.90;;;10.80;;
84816;SDS011;75051;53.104;18.058;2024-03-22T09:31:36;16.60;;;10.10;;
84816;SDS011;75051;53.104;18.058;2024-03-22T09:34:03;14.30;;;9.00;;
84816;SDS011;75051;53.104;18.058;2024-03-22T09:36:29;12.40;;;8.50;;
84816;SDS011;75051;53.104;18.058;2024-03-22T09:39:01;18.80;;;10.10;;
84816;SDS011;75051;53.104;18.058;2024-03-22T09:41:28;14.60;;;9.10;;
84816;SDS011;75051;53.104;18.058;2024-03-22T09:43:59;19.70;;;11.60;;
84816;SDS011;75051;53.104;18.058;2024-03-22T09:46:29;16.00;;;9.10;;
84816;SDS011;75051;53.104;18.058;2024-03-22T09:48:56;17.40;;;10.80;;
84816;SDS011;75051;53.104;18.058;2024-03-22T09:51:25;21.20;;;10.90;;
84816;SDS011;75051;53.104;18.058;2024-03-22T09:53:52;30.20;;;11.70;;
84816;SDS011;75051;53.104;18.058;2024-03-22T09:56:20;24.90;;;10.60;;
84816;SDS011;75051;53.104;18.058;2024-03-22T09:58:47;43.80;;;14.90;;
84816;SDS011;75051;53.104;18.058;2024-03-22T10:01:15;18.50;;;9.80;;
84816;SDS011;75051;53.104;18.058;2024-03-22T10:03:53;27.60;;;12.10;;
84816;SDS011;75051;53.104;18.058;2024-03-22T10:06:22;20.90;;;11.10;;
84816;SDS011;75051;53.104;18.058;2024-03-22T10:08:49;27.40;;;12.80;;
84816;SDS011;75051;53.104;18.058;2024-03-22T10:11:15;68.80;;;17.50;;
84816;SDS011;75051;53.104;18.058;2024-03-22T10:13:42;18.10;;;10.40;;
84816;SDS011;75051;53.104;18.058;2024-03-22T10:16:09;25.00;;;11.20;;
84816;SDS011;75051;53.104;18.058;2024-03-22T10:18:35;20.70;;;11.60;;
84816;SDS011;75051;53.104;18.058;2024-03-22T10:21:03;20.50;;;10.90;;
84816;SDS011;75051;53.104;18.058;2024-03-22T10:23:31;15.90;;;9.50;;
84816;SDS011;75051;53.104;18.058;2024-03-22T10:25:58;16.90;;;9.50;;
84816;SDS011;75051;53.104;18.058;2024-03-22T10:28:26;17.30;;;10.60;;
84816;SDS011;75051;53.104;18.058;2024-03-22T10:30:53;19.10;;;10.30;;
84816;SDS011;75051;53.104;18.058;2024-03-22T10:33:21;19.70;;;11.20;;
84816;SDS011;75051;53.104;18.058;2024-03-22T10:35:53;13.40;;;8.60;;
84816;SDS011;75051;53.104;18.058;2024-03-22T10:38:20;15.10;;;9.10;;
84816;SDS011;75051;53.104;18.058;2024-03-22T10:40:48;14.10;;;8.90;;
84816;SDS011;75051;53.104;18.058;2024-03-22T10:43:15;17.30;;;10.20;;
84816;SDS011;75051;53.104;18.058;2024-03-22T10:45:42;26.30;;;11.80;;
84816;SDS011;75051;53.104;18.058;2024-03-22T10:50:41;22.70;;;10.80;;
84816;SDS011;75051;53.104;18.058;2024-03-22T10:53:20;19.80;;;10.00;;
84816;SDS011;75051;53.104;18.058;2024-03-22T10:55:50;17.60;;;10.50;;
84816;SDS011;75051;53.104;18.058;2024-03-22T10:58:23;18.70;;;9.50;;
84816;SDS011;75051;53.104;18.058;2024-03-22T11:00:54;12.00;;;6.20;;
84816;SDS011;75051;53.104;18.058;2024-03-22T11:03:23;22.20;;;9.60;;
84816;SDS011;75051;53.104;18.058;2024-03-22T11:05:54;30.00;;;12.10;;
84816;SDS011;75051;53.104;18.058;2024-03-22T11:08:25;14.40;;;8.50;;
84816;SDS011;75051;53.104;18.058;2024-03-22T11:10:53;20.00;;;9.60;;
84816;SDS011;75051;53.104;18.058;2024-03-22T11:13:20;18.30;;;10.50;;
84816;SDS011;75051;53.104;18.058;2024-03-22T11:15:47;13.80;;;8.80;;
84816;SDS011;75051;53.104;18.058;2024-03-22T11:18:14;19.10;;;10.50;;
84816;SDS011;75051;53.104;18.058;2024-03-22T11:20:42;18.00;;;9.10;;
84816;SDS011;75051;53.104;18.058;2024-03-22T11:23:09;20.20;;;9.80;;
84816;SDS011;75051;53.104;18.058;2024-03-22T11:25:36;21.50;;;10.10;;
84816;SDS011;75051;53.104;18.058;2024-03-22T11:28:03;18.60;;;8.70;;
84816;SDS011;75051;53.104;18.058;2024-03-22T11:30:31;18.90;;;10.20;;
84816;SDS011;75051;53.104;18.058;2024-03-22T11:33:00;23.30;;;11.90;;
84816;SDS011;75051;53.104;18.058;2024-03-22T11:35:28;15.10;;;8.20;;
84816;SDS011;75051;53.104;18.058;2024-03-22T11:37:54;19.80;;;11.50;;
84816;SDS011;75051;53.104;18.058;2024-03-22T11:40:22;17.10;;;8.80;;
84816;SDS011;75051;53.104;18.058;2024-03-22T11:42:50;17.10;;;11.20;;
84816;SDS011;75051;53.104;18.058;2024-03-22T11:45:18;14.40;;;7.70;;
84816;SDS011;75051;53.104;18.058;2024-03-22T11:47:46;16.40;;;9.80;;
84816;SDS011;75051;53.104;18.058;2024-03-22T11:50:14;16.80;;;10.40;;
84816;SDS011;75051;53.104;18.058;2024-03-22T11:52:43;17.40;;;10.40;;
84816;SDS011;75051;53.104;18.058;2024-03-22T11:55:10;16.50;;;8.10;;
84816;SDS011;75051;53.104;18.058;2024-03-22T11:57:37;19.80;;;11.00;;
84816;SDS011;75051;53.104;18.058;2024-03-22T12:00:09;33.10;;;12.60;;
84816;SDS011;75051;53.104;18.058;2024-03-22T12:02:36;19.10;;;12.40;;
84816;SDS011;75051;53.104;18.058;2024-03-22T12:05:03;27.90;;;12.50;;
84816;SDS011;75051;53.104;18.058;2024-03-22T12:07:30;25.50;;;13.00;;
84816;SDS011;75051;53.104;18.058;2024-03-22T12:09:58;22.80;;;11.90;;
84816;SDS011;75051;53.104;18.058;2024-03-22T12:12:25;21.00;;;10.80;;
84816;SDS011;75051;53.104;18.058;2024-03-22T12:14:53;20.30;;;10.40;;
84816;SDS011;75051;53.104;18.058;2024-03-22T12:17:19;23.70;;;11.00;;
84816;SDS011;75051;53.104;18.058;2024-03-22T12:19:46;17.40;;;10.30;;
84816;SDS011;75051;53.104;18.058;2024-03-22T12:22:13;17.30;;;10.40;;
84816;SDS011;75051;53.104;18.058;2024-03-22T12:24:40;16.50;;;10.20;;
84816;SDS011;75051;53.104;18.058;2024-03-22T12:27:06;20.40;;;12.30;;
84816;SDS011;75051;53.104;18.058;2024-03-22T12:29:33;19.40;;;10.50;;
84816;SDS011;75051;53.104;18.058;2024-03-22T12:32:01;18.30;;;11.20;;
84816;SDS011;75051;53.104;18.058;2024-03-22T12:34:30;20.20;;;12.80;;
84816;SDS011;75051;53.104;18.058;2024-03-22T12:36:59;13.30;;;9.30;;
84816;SDS011;75051;53.104;18.058;2024-03-22T12:39:26;15.20;;;9.00;;
84816;SDS011;75051;53.104;18.058;2024-03-22T12:41:52;22.80;;;10.40;;
84816;SDS011;75051;53.104;18.058;2024-03-22T12:44:20;21.30;;;10.40;;
84816;SDS011;75051;53.104;18.058;2024-03-22T12:46:47;17.10;;;9.00;;
84816;SDS011;75051;53.104;18.058;2024-03-22T12:49:13;24.10;;;13.80;;
84816;SDS011;75051;53.104;18.058;2024-03-22T12:51:41;20.90;;;12.90;;
84816;SDS011;75051;53.104;18.058;2024-03-22T12:54:08;19.90;;;11.80;;
84816;SDS011;75051;53.104;18.058;2024-03-22T12:56:35;18.40;;;9.70;;
84816;SDS011;75051;53.104;18.058;2024-03-22T12:59:03;15.40;;;8.30;;
84816;SDS011;75051;53.104;18.058;2024-03-22T13:01:29;20.20;;;12.10;;
84816;SDS011;75051;53.104;18.058;2024-03-22T13:03:57;21.30;;;12.60;;
84816;SDS011;75051;53.104;18.058;2024-03-22T13:06:24;23.20;;;11.50;;
84816;SDS011;75051;53.104;18.058;2024-03-22T13:08:51;18.90;;;10.40;;
84816;SDS011;75051;53.104;18.058;2024-03-22T13:11:18;19.00;;;11.30;;
84816;SDS011;75051;53.104;18.058;2024-03-22T13:13:44;17.80;;;11.70;;
84816;SDS011;75051;53.104;18.058;2024-03-22T13:16:12;17.50;;;12.00;;
84816;SDS011;75051;53.104;18.058;2024-03-22T13:18:41;22.80;;;13.40;;
84816;SDS011;75051;53.104;18.058;2024-03-22T13:21:08;14.20;;;9.60;;
84816;SDS011;75051;53.104;18.058;2024-03-22T13:23:37;17.50;;;9.90;;
84816;SDS011;75051;53.104;18.058;2024-03-22T13:26:04;17.10;;;10.20;;
84816;SDS011;75051;53.104;18.058;2024-03-22T13:28:32;19.30;;;11.30;;
84816;SDS011;75051;53.104;18.058;2024-03-22T13:31:02;18.80;;;11.50;;
84816;SDS011;75051;53.104;18.058;2024-03-22T13:33:29;19.10;;;11.10;;
84816;SDS011;75051;53.104;18.058;2024-03-22T13:35:57;18.50;;;12.60;;
84816;SDS011;75051;53.104;18.058;2024-03-22T13:38:23;16.80;;;10.40;;
84816;SDS011;75051;53.104;18.058;2024-03-22T13:40:54;17.10;;;10.40;;
84816;SDS011;75051;53.104;18.058;2024-03-22T13:43:25;12.40;;;8.30;;
84816;SDS011;75051;53.104;18.058;2024-03-22T13:45:55;18.80;;;11.20;;
84816;SDS011;75051;53.104;18.058;2024-03-22T13:48:24;15.80;;;10.90;;
84816;SDS011;75051;53.104;18.058;2024-03-22T13:50:54;18.20;;;12.10;;
84816;SDS011;75051;53.104;18.058;2024-03-22T13:53:22;17.30;;;10.30;;
84816;SDS011;75051;53.104;18.058;2024-03-22T13:55:51;20.40;;;14.00;;
84816;SDS011;75051;53.104;18.058;2024-03-22T13:58:19;18.30;;;11.30;;
84816;SDS011;75051;53.104;18.058;2024-03-22T14:00:46;19.50;;;11.70;;
84816;SDS011;75051;53.104;18.058;2024-03-22T14:03:14;15.60;;;10.60;;
84816;SDS011;75051;53.104;18.058;2024-03-22T14:05:40;15.80;;;10.40;;
84816;SDS011;75051;53.104;18.058;2024-03-22T14:08:07;15.20;;;8.80;;
84816;SDS011;75051;53.104;18.058;2024-03-22T14:10:34;15.20;;;7.80;;
84816;SDS011;75051;53.104;18.058;2024-03-22T14:13:01;14.40;;;8.50;;
84816;SDS011;75051;53.104;18.058;2024-03-22T14:15:28;19.80;;;11.20;;
84816;SDS011;75051;53.104;18.058;2024-03-22T14:17:58;21.20;;;13.50;;